Time;durP1;ratioP1;P1;durP2;ratioP2;P2;SDS_P1;SDS_P2;PMS_P1;PMS_P2;Temp;Humidity;BMP_temperature;BMP_pressure;BME280_temperature;BME280_humidity;BME280_pressure;Samples;Min_cycle;Max_cycle;Signal;HPM_P1;HPM_P2
2023/07/08 00:01:13;;;;;;;6.68;3.15;;;21.60;95.10;;;;;;5039075;28;20048;-71
2023/07/08 00:03:39;;;;;;;4.40;2.92;;;21.50;95.40;;;;;;5038996;28;20060;-71
2023/07/08 00:06:04;;;;;;;8.95;3.50;;;21.40;95.40;;;;;;5038482;28;20065;-71
2023/07/08 00:08:30;;;;;;;6.00;3.30;;;21.40;95.80;;;;;;5038152;28;20022;-71
2023/07/08 00:10:55;;;;;;;7.78;3.00;;;21.30;96.20;;;;;;5038495;28;20018;-71
2023/07/08 00:13:21;;;;;;;8.30;3.50;;;21.20;96.50;;;;;;5038742;28;20120;-71
2023/07/08 00:15:46;;;;;;;8.43;2.97;;;21.20;96.70;;;;;;5039274;28;20027;-71
2023/07/08 00:18:16;;;;;;;4.70;2.55;;;21.20;96.60;;;;;;5038496;28;20030;-71
2023/07/08 00:20:49;;;;;;;7.50;2.92;;;21.20;97.00;;;;;;5038430;28;20053;-71
2023/07/08 00:23:15;;;;;;;7.32;3.13;;;21.20;97.10;;;;;;5039005;28;20025;-71
2023/07/08 00:25:42;;;;;;;5.63;2.92;;;21.20;97.20;;;;;;5038244;28;20033;-71
2023/07/08 00:28:16;;;;;;;7.15;3.00;;;21.10;97.80;;;;;;5039046;28;20033;-71
2023/07/08 00:30:42;;;;;;;5.07;2.90;;;21.20;97.80;;;;;;5038534;28;20021;-71
2023/07/08 00:33:07;;;;;;;9.27;2.72;;;21.10;98.20;;;;;;5038459;28;20047;-71
2023/07/08 00:35:36;;;;;;;6.30;2.85;;;21.10;98.20;;;;;;5038352;28;20025;-71
2023/07/08 00:38:12;;;;;;;5.32;3.13;;;21.10;98.30;;;;;;5038427;28;20017;-71
2023/07/08 00:40:38;;;;;;;6.13;2.92;;;21.00;98.40;;;;;;5038036;28;20026;-71
2023/07/08 00:43:08;;;;;;;4.47;2.40;;;21.00;98.90;;;;;;5038758;28;20021;-71
2023/07/08 00:45:48;;;;;;;4.43;2.95;;;20.90;99.30;;;;;;5037793;28;20041;-71
2023/07/08 00:48:27;;;;;;;3.45;2.38;;;20.90;99.50;;;;;;5038341;28;20021;-71
2023/07/08 00:50:53;;;;;;;5.50;2.55;;;20.90;99.70;;;;;;5038309;28;20033;-71
2023/07/08 00:53:22;;;;;;;6.05;3.00;;;20.80;99.70;;;;;;5038011;28;20021;-71
2023/07/08 00:55:48;;;;;;;5.57;2.75;;;20.80;99.90;;;;;;5037700;28;20109;-70
2023/07/08 00:58:16;;;;;;;3.65;2.75;;;20.80;99.90;;;;;;5037808;28;20087;-70
2023/07/08 01:00:42;;;;;;;5.15;2.90;;;20.80;99.90;;;;;;5037791;28;20026;-70
2023/07/08 01:03:07;;;;;;;4.88;2.95;;;20.80;99.90;;;;;;5037806;28;20029;-70
2023/07/08 01:05:34;;;;;;;6.53;2.67;;;20.70;99.90;;;;;;5037659;28;20060;-70
2023/07/08 01:08:04;;;;;;;3.85;2.60;;;20.60;99.90;;;;;;5037846;28;20021;-70
2023/07/08 01:10:41;;;;;;;5.82;2.25;;;20.70;99.90;;;;;;5037493;28;20028;-70
2023/07/08 01:13:09;;;;;;;5.28;2.72;;;20.60;99.90;;;;;;5037485;28;20098;-70
2023/07/08 01:15:41;;;;;;;4.40;2.88;;;20.70;99.90;;;;;;5037525;28;20040;-70
2023/07/08 01:18:09;;;;;;;8.35;3.30;;;20.70;99.90;;;;;;5037219;28;20030;-70
2023/07/08 01:20:35;;;;;;;6.80;2.80;;;20.60;99.90;;;;;;5037745;28;20032;-70
2023/07/08 01:23:01;;;;;;;4.97;2.90;;;20.50;99.90;;;;;;5037120;28;20025;-70
2023/07/08 01:25:27;;;;;;;3.97;2.95;;;20.60;99.90;;;;;;5037498;28;20021;-70
2023/07/08 01:27:56;;;;;;;5.07;2.47;;;20.60;99.90;;;;;;5037439;28;20029;-70
2023/07/08 01:30:22;;;;;;;6.28;2.63;;;20.60;99.90;;;;;;5037353;28;20024;-70
2023/07/08 01:32:51;;;;;;;4.55;2.50;;;20.60;99.90;;;;;;5036993;28;20022;-70
2023/07/08 01:35:17;;;;;;;3.83;2.72;;;20.60;99.90;;;;;;5037083;28;20022;-70
2023/07/08 01:37:54;;;;;;;6.20;2.08;;;20.50;99.90;;;;;;5037881;28;20036;-70
2023/07/08 01:40:27;;;;;;;5.68;2.42;;;20.40;99.90;;;;;;5037595;28;20030;-71
2023/07/08 01:42:53;;;;;;;8.43;2.55;;;20.30;99.90;;;;;;5036859;28;20021;-71
2023/07/08 01:45:22;;;;;;;5.90;2.85;;;20.20;99.90;;;;;;5037006;28;20051;-70
2023/07/08 01:47:56;;;;;;;4.50;2.50;;;20.30;99.90;;;;;;5037410;28;20021;-71
2023/07/08 01:50:24;;;;;;;6.65;2.80;;;20.40;99.90;;;;;;5037284;28;20104;-71
2023/07/08 01:52:52;;;;;;;5.82;2.65;;;20.30;99.90;;;;;;5036943;28;20021;-71
2023/07/08 01:55:24;;;;;;;7.68;2.72;;;20.40;99.90;;;;;;5037340;28;20025;-70
2023/07/08 01:57:53;;;;;;;6.65;2.53;;;20.30;99.90;;;;;;5037331;28;20025;-71
2023/07/08 02:00:20;;;;;;;4.97;2.95;;;20.40;99.90;;;;;;5037227;28;20083;-71
2023/07/08 02:02:46;;;;;;;5.53;2.60;;;20.40;99.90;;;;;;5036837;28;20026;-71
2023/07/08 02:05:12;;;;;;;4.75;2.47;;;20.40;99.90;;;;;;5036050;28;20103;-71
2023/07/08 02:07:37;;;;;;;6.57;2.40;;;20.40;99.90;;;;;;5037221;28;20036;-71
2023/07/08 02:10:03;;;;;;;3.90;2.67;;;20.40;99.90;;;;;;5037455;28;20108;-70
2023/07/08 02:12:29;;;;;;;4.93;2.65;;;20.10;99.90;;;;;;5037134;28;20028;-70
2023/07/08 02:14:54;;;;;;;5.43;2.85;;;20.20;99.90;;;;;;5036529;28;20021;-71
2023/07/08 02:17:20;;;;;;;6.97;2.88;;;20.10;99.90;;;;;;5036437;28;20037;-71
2023/07/08 02:19:45;;;;;;;8.63;2.50;;;20.00;99.90;;;;;;5036588;28;20068;-70
2023/07/08 02:22:11;;;;;;;5.03;2.42;;;20.00;99.90;;;;;;5037200;28;20044;-70
2023/07/08 02:24:36;;;;;;;4.25;2.50;;;20.10;99.90;;;;;;5036476;28;20061;-71
2023/07/08 02:27:02;;;;;;;6.55;3.28;;;20.10;99.90;;;;;;5036010;28;20034;-71
2023/07/08 02:29:28;;;;;;;8.00;2.55;;;20.00;99.90;;;;;;5036364;28;20021;-71
2023/07/08 02:31:53;;;;;;;3.00;2.20;;;20.00;99.90;;;;;;5035885;28;20017;-71
2023/07/08 02:34:19;;;;;;;6.43;2.50;;;20.00;99.90;;;;;;5036829;28;20021;-71
2023/07/08 02:36:44;;;;;;;4.55;2.90;;;19.90;99.90;;;;;;5036053;28;20033;-71
2023/07/08 02:39:11;;;;;;;4.50;2.97;;;20.00;99.90;;;;;;5036342;28;20029;-71
2023/07/08 02:41:36;;;;;;;6.75;2.75;;;20.00;99.90;;;;;;5036011;28;20022;-71
2023/07/08 02:44:02;;;;;;;5.10;2.50;;;19.80;99.90;;;;;;5036086;28;20032;-71
2023/07/08 02:46:28;;;;;;;7.90;2.85;;;19.80;99.90;;;;;;5035828;28;20118;-71
2023/07/08 02:48:53;;;;;;;5.00;2.38;;;19.90;99.90;;;;;;5036675;28;20056;-71
2023/07/08 02:51:19;;;;;;;5.65;2.70;;;19.90;99.90;;;;;;5035864;28;20022;-71
2023/07/08 02:53:44;;;;;;;6.40;2.42;;;19.90;99.90;;;;;;5035875;28;20025;-71
2023/07/08 02:56:10;;;;;;;4.03;2.70;;;19.80;99.90;;;;;;5036218;28;20035;-71
2023/07/08 02:58:36;;;;;;;5.38;2.67;;;19.70;99.90;;;;;;5036533;28;20025;-71
2023/07/08 03:01:01;;;;;;;4.97;2.50;;;19.60;99.90;;;;;;5036070;28;20137;-71
2023/07/08 03:03:31;;;;;;;5.78;2.30;;;19.70;99.90;;;;;;5036579;28;20022;-71
2023/07/08 03:05:58;;;;;;;6.93;2.97;;;19.60;99.90;;;;;;5036183;28;20025;-71
2023/07/08 03:08:24;;;;;;;6.13;3.25;;;19.60;99.90;;;;;;5035699;28;20026;-71
2023/07/08 03:10:56;;;;;;;4.88;2.65;;;19.50;99.90;;;;;;5035983;28;20080;-70
2023/07/08 03:13:22;;;;;;;5.70;2.58;;;19.50;99.90;;;;;;5036687;28;20037;-70
2023/07/08 03:15:48;;;;;;;5.55;2.95;;;19.50;99.90;;;;;;5036103;28;20025;-70
2023/07/08 03:18:13;;;;;;;4.07;3.00;;;19.50;99.90;;;;;;5035953;28;20021;-70
2023/07/08 03:20:40;;;;;;;5.60;2.53;;;19.50;99.90;;;;;;5035805;28;20048;-70
2023/07/08 03:23:05;;;;;;;6.47;2.70;;;19.50;99.90;;;;;;5036468;28;20064;-70
2023/07/08 03:25:31;;;;;;;4.28;2.95;;;19.50;99.90;;;;;;5035648;28;20069;-70
2023/07/08 03:27:57;;;;;;;4.30;2.22;;;19.40;99.90;;;;;;5035772;28;20026;-70
2023/07/08 03:30:23;;;;;;;5.28;3.00;;;19.20;99.90;;;;;;5035838;28;20033;-70
2023/07/08 03:32:48;;;;;;;3.78;2.67;;;19.30;99.90;;;;;;5035765;28;20022;-70
2023/07/08 03:35:14;;;;;;;7.47;2.55;;;19.10;99.90;;;;;;5035739;28;20025;-70
2023/07/08 03:37:40;;;;;;;6.18;2.60;;;19.10;99.90;;;;;;5036162;28;20036;-70
2023/07/08 03:40:09;;;;;;;3.75;2.42;;;19.10;99.90;;;;;;5035412;28;20036;-70
2023/07/08 03:42:35;;;;;;;6.38;2.55;;;19.10;99.90;;;;;;5035376;28;20052;-70
2023/07/08 03:45:00;;;;;;;4.25;2.65;;;19.10;99.90;;;;;;5037803;28;20097;-70
2023/07/08 03:47:26;;;;;;;5.43;2.65;;;19.10;99.90;;;;;;5039836;28;20022;-70
2023/07/08 03:49:51;;;;;;;7.43;2.85;;;19.10;99.90;;;;;;5038934;28;20120;-70
2023/07/08 03:52:17;;;;;;;8.07;3.15;;;19.20;99.90;;;;;;5038894;28;20026;-70
2023/07/08 03:54:43;;;;;;;5.80;2.65;;;19.30;99.90;;;;;;5039843;28;20112;-70
2023/07/08 03:57:09;;;;;;;6.60;2.90;;;19.30;99.90;;;;;;5038948;28;20057;-70
2023/07/08 03:59:34;;;;;;;4.65;2.80;;;19.30;99.90;;;;;;5039315;28;20024;-70
2023/07/08 04:02:00;;;;;;;4.55;2.60;;;19.20;99.90;;;;;;5039415;28;20025;-70
2023/07/08 04:04:26;;;;;;;7.28;2.95;;;19.30;99.90;;;;;;5038886;28;20026;-70
2023/07/08 04:06:51;;;;;;;3.80;2.42;;;19.30;99.90;;;;;;5038518;28;20041;-70
2023/07/08 04:09:17;;;;;;;4.80;2.90;;;19.40;99.90;;;;;;5038507;28;20109;-70
2023/07/08 04:11:42;;;;;;;3.55;2.70;;;19.40;99.90;;;;;;5038908;28;20029;-70
2023/07/08 04:14:11;;;;;;;5.80;2.80;;;19.30;99.90;;;;;;5038451;28;20037;-70
2023/07/08 04:16:45;;;;;;;4.63;2.70;;;19.30;99.90;;;;;;5038956;28;20026;-70
2023/07/08 04:19:14;;;;;;;5.70;3.28;;;19.10;99.90;;;;;;5038451;28;20026;-70
2023/07/08 04:21:40;;;;;;;5.68;3.15;;;19.00;99.90;;;;;;5038419;28;20038;-70
2023/07/08 04:24:05;;;;;;;4.70;2.90;;;19.00;99.90;;;;;;5038476;28;20052;-70
2023/07/08 04:26:35;;;;;;;3.85;2.50;;;18.90;99.90;;;;;;5038193;28;20060;-70
2023/07/08 04:29:01;;;;;;;3.55;2.42;;;18.80;99.90;;;;;;5039234;28;20077;-70
2023/07/08 04:31:27;;;;;;;4.03;2.45;;;18.90;99.90;;;;;;5038384;28;20055;-70
2023/07/08 04:33:52;;;;;;;9.73;2.97;;;18.90;99.90;;;;;;5038208;28;20116;-70
2023/07/08 04:36:21;;;;;;;8.93;2.50;;;19.00;99.90;;;;;;5038904;28;20021;-70
2023/07/08 04:38:47;;;;;;;4.32;2.58;;;19.10;99.90;;;;;;5038300;28;20028;-70
2023/07/08 04:41:12;;;;;;;4.45;3.00;;;18.90;99.90;;;;;;5039250;28;20029;-70
2023/07/08 04:43:38;;;;;;;3.70;2.33;;;19.00;99.90;;;;;;5038909;28;20032;-70
2023/07/08 04:46:16;;;;;;;5.18;2.47;;;18.90;99.90;;;;;;5038920;28;20097;-70
2023/07/08 04:48:42;;;;;;;5.55;3.08;;;19.10;99.90;;;;;;5037953;28;20085;-70
2023/07/08 04:51:08;;;;;;;9.57;2.50;;;19.10;99.90;;;;;;5038493;28;20052;-70
2023/07/08 04:53:33;;;;;;;4.97;2.80;;;19.20;99.90;;;;;;5037793;28;20021;-70
2023/07/08 04:55:59;;;;;;;11.40;2.70;;;19.20;99.90;;;;;;5037497;28;20029;-70
2023/07/08 04:58:25;;;;;;;3.67;2.58;;;19.20;99.90;;;;;;5037975;28;20022;-70
2023/07/08 05:00:50;;;;;;;5.93;2.80;;;19.20;99.90;;;;;;5037917;28;20030;-70
2023/07/08 05:03:16;;;;;;;3.50;2.53;;;19.10;99.90;;;;;;5037471;28;20021;-70
2023/07/08 05:05:41;;;;;;;6.15;2.80;;;19.10;99.90;;;;;;5037593;28;20048;-70
2023/07/08 05:08:07;;;;;;;7.97;2.83;;;19.10;99.90;;;;;;5038361;28;20034;-70
2023/07/08 05:10:33;;;;;;;5.10;3.00;;;19.20;99.90;;;;;;5037486;28;20148;-70
2023/07/08 05:13:00;;;;;;;5.63;2.60;;;19.20;99.90;;;;;;5037345;28;20089;-70
2023/07/08 05:15:26;;;;;;;5.80;3.05;;;19.30;99.90;;;;;;5037842;28;20033;-70
2023/07/08 05:17:51;;;;;;;3.45;2.33;;;19.40;99.90;;;;;;5037288;28;20032;-70
2023/07/08 05:20:18;;;;;;;4.65;2.58;;;19.50;99.90;;;;;;5037616;28;20032;-70
2023/07/08 05:22:44;;;;;;;5.28;2.47;;;19.50;99.90;;;;;;5037540;28;20021;-70
2023/07/08 05:25:11;;;;;;;6.63;2.72;;;19.60;99.90;;;;;;5038156;28;20035;-71
2023/07/08 05:27:36;;;;;;;4.75;2.95;;;19.70;99.90;;;;;;5037165;28;20017;-71
2023/07/08 05:30:05;;;;;;;4.55;2.50;;;19.60;99.90;;;;;;5037692;28;20022;-70
2023/07/08 05:32:31;;;;;;;5.43;2.80;;;19.70;99.90;;;;;;5037729;28;20022;-70
2023/07/08 05:34:56;;;;;;;3.97;2.47;;;19.80;99.90;;;;;;5037645;28;20044;-70
2023/07/08 05:37:25;;;;;;;5.07;2.47;;;19.80;99.90;;;;;;5036941;28;20075;-71
2023/07/08 05:39:51;;;;;;;6.57;2.97;;;19.80;99.90;;;;;;5037710;28;20017;-70
2023/07/08 05:42:17;;;;;;;4.45;2.65;;;19.90;99.90;;;;;;5037631;28;20098;-70
2023/07/08 05:44:43;;;;;;;3.60;2.85;;;20.00;99.90;;;;;;5037018;28;20025;-70
2023/07/08 05:47:08;;;;;;;7.82;3.17;;;20.00;99.90;;;;;;5036716;28;20112;-71
2023/07/08 05:49:34;;;;;;;3.80;2.45;;;20.00;99.90;;;;;;5036976;28;20021;-70
2023/07/08 05:52:05;;;;;;;7.97;2.97;;;20.00;99.90;;;;;;5037476;28;20068;-70
2023/07/08 05:54:31;;;;;;;4.85;2.67;;;19.90;99.90;;;;;;5037786;28;20022;-70
2023/07/08 05:56:56;;;;;;;4.90;2.45;;;20.00;99.90;;;;;;5036983;28;20030;-71
2023/07/08 05:59:22;;;;;;;4.53;3.13;;;20.00;99.90;;;;;;5037207;28;20036;-71
2023/07/08 06:01:47;;;;;;;3.75;2.67;;;20.10;99.90;;;;;;5036788;28;20028;-70
2023/07/08 06:04:13;;;;;;;5.13;2.67;;;20.10;99.90;;;;;;5036768;28;20036;-71
2023/07/08 06:06:38;;;;;;;6.45;3.28;;;20.20;99.90;;;;;;5035868;28;20036;-71
2023/07/08 06:09:04;;;;;;;7.28;3.47;;;20.10;99.90;;;;;;5036585;28;20049;-70
2023/07/08 06:11:29;;;;;;;5.35;3.03;;;20.20;99.90;;;;;;5037368;28;20017;-70
2023/07/08 06:13:55;;;;;;;5.60;2.83;;;20.10;99.90;;;;;;5037055;28;20022;-70
2023/07/08 06:16:21;;;;;;;7.60;2.92;;;20.20;99.90;;;;;;5036219;28;20025;-70
2023/07/08 06:18:46;;;;;;;11.55;3.63;;;20.30;99.90;;;;;;5036198;28;20033;-70
2023/07/08 06:21:12;;;;;;;5.60;3.08;;;20.50;99.90;;;;;;5036582;28;20025;-70
2023/07/08 06:23:37;;;;;;;9.27;3.00;;;20.40;99.90;;;;;;5036023;28;20029;-70
2023/07/08 06:26:03;;;;;;;4.57;3.08;;;20.60;99.90;;;;;;5036386;28;20025;-70
2023/07/08 06:28:29;;;;;;;5.25;2.88;;;20.70;99.90;;;;;;5019848;28;20046;-70
2023/07/08 06:30:55;;;;;;;6.07;2.70;;;20.80;99.90;;;;;;5036109;28;20104;-70
2023/07/08 06:33:20;;;;;;;4.20;2.60;;;20.90;99.90;;;;;;5037115;28;20076;-71
2023/07/08 06:35:46;;;;;;;5.35;3.67;;;21.00;99.90;;;;;;5035931;28;20065;-71
2023/07/08 06:38:12;;;;;;;4.00;3.00;;;21.10;99.90;;;;;;5036491;28;20116;-71
2023/07/08 06:40:38;;;;;;;6.20;3.28;;;21.20;99.90;;;;;;5036049;28;20025;-71
2023/07/08 06:43:03;;;;;;;4.65;3.08;;;21.20;99.90;;;;;;5036784;28;20036;-71
2023/07/08 06:45:29;;;;;;;5.75;3.30;;;21.30;99.90;;;;;;5035832;28;20036;-71
2023/07/08 06:47:55;;;;;;;4.72;2.88;;;21.40;99.90;;;;;;5035815;28;20026;-71
2023/07/08 06:50:20;;;;;;;8.10;3.15;;;21.40;99.90;;;;;;5036036;28;20085;-71
2023/07/08 06:52:46;;;;;;;9.32;3.50;;;21.40;99.90;;;;;;5035740;28;20017;-71
2023/07/08 06:55:12;;;;;;;9.70;3.20;;;21.40;99.90;;;;;;5036198;28;20032;-71
2023/07/08 06:57:40;;;;;;;5.60;3.45;;;21.40;99.90;;;;;;5035873;28;20060;-71
2023/07/08 07:00:07;;;;;;;8.88;3.70;;;21.40;99.90;;;;;;5035518;28;20025;-71
2023/07/08 07:02:34;;;;;;;5.43;2.92;;;21.50;99.90;;;;;;5035701;28;20026;-71
2023/07/08 07:05:00;;;;;;;7.95;3.40;;;21.60;99.90;;;;;;5035434;28;20057;-71
2023/07/08 07:07:25;;;;;;;5.18;3.10;;;21.70;99.90;;;;;;5035696;28;20111;-71
2023/07/08 07:09:51;;;;;;;6.68;3.05;;;21.80;99.90;;;;;;5035962;28;20022;-71
2023/07/08 07:12:16;;;;;;;6.35;3.00;;;21.90;99.90;;;;;;5035705;28;20025;-72
2023/07/08 07:14:42;;;;;;;4.47;2.90;;;21.90;99.90;;;;;;5035700;28;20032;-71
2023/07/08 07:17:07;;;;;;;5.15;3.38;;;21.90;99.90;;;;;;5035476;28;20072;-71
2023/07/08 07:19:33;;;;;;;4.25;3.30;;;22.00;99.90;;;;;;5039244;28;20029;-71
2023/07/08 07:21:58;;;;;;;9.23;2.97;;;22.00;99.90;;;;;;5040270;28;20128;-71
2023/07/08 07:24:24;;;;;;;5.20;3.15;;;22.00;99.90;;;;;;5039646;28;20025;-71
2023/07/08 07:26:50;;;;;;;4.68;2.80;;;22.10;99.90;;;;;;5040234;28;20029;-72
2023/07/08 07:29:17;;;;;;;5.93;2.95;;;22.20;99.90;;;;;;5039764;28;20037;-71
2023/07/08 07:31:43;;;;;;;7.18;3.67;;;22.30;99.90;;;;;;5040173;28;20021;-71
2023/07/08 07:34:09;;;;;;;4.78;3.08;;;22.30;99.90;;;;;;5040222;28;20031;-71
2023/07/08 07:36:34;;;;;;;8.02;3.30;;;22.40;99.90;;;;;;5039422;28;20025;-71
2023/07/08 07:39:00;;;;;;;6.97;2.92;;;22.50;99.90;;;;;;5039837;28;20047;-71
2023/07/08 07:41:26;;;;;;;7.85;2.70;;;22.40;99.90;;;;;;5039603;28;20040;-71
2023/07/08 07:43:51;;;;;;;9.68;3.92;;;22.40;99.90;;;;;;5039035;28;20048;-71
2023/07/08 07:46:17;;;;;;;9.35;3.35;;;22.50;99.90;;;;;;5038897;28;20033;-71
2023/07/08 07:48:42;;;;;;;8.45;3.60;;;22.70;99.90;;;;;;5039359;28;20024;-71
2023/07/08 07:51:10;;;;;;;8.10;3.58;;;22.70;99.90;;;;;;5038949;28;20030;-71
2023/07/08 07:53:37;;;;;;;6.80;3.90;;;22.80;99.90;;;;;;5039253;28;20047;-71
2023/07/08 07:56:03;;;;;;;7.07;3.50;;;22.80;99.90;;;;;;5039044;28;20032;-72
2023/07/08 07:58:29;;;;;;;4.97;2.92;;;22.90;99.90;;;;;;5038904;28;20022;-71
2023/07/08 08:00:55;;;;;;;4.50;2.95;;;23.00;99.90;;;;;;5039128;28;20025;-71
2023/07/08 08:03:21;;;;;;;6.32;3.28;;;23.10;99.90;;;;;;5038944;28;20025;-72
2023/07/08 08:05:48;;;;;;;5.22;3.70;;;23.20;99.90;;;;;;5038894;28;20033;-70
2023/07/08 08:08:13;;;;;;;5.55;3.20;;;23.30;99.90;;;;;;5038830;28;20061;-70
2023/07/08 08:10:39;;;;;;;9.90;3.85;;;23.30;99.90;;;;;;5039097;28;20064;-70
2023/07/08 08:13:04;;;;;;;7.70;3.55;;;23.30;99.90;;;;;;5039260;28;20021;-70
2023/07/08 08:15:30;;;;;;;7.53;3.20;;;23.30;99.90;;;;;;5038531;28;20053;-70
2023/07/08 08:17:55;;;;;;;8.23;3.47;;;23.40;99.90;;;;;;5038385;28;20029;-70
2023/07/08 08:20:23;;;;;;;7.20;3.70;;;23.50;99.90;;;;;;5038488;28;20021;-70
2023/07/08 08:22:49;;;;;;;8.18;3.47;;;23.50;99.90;;;;;;5039572;28;20021;-70
2023/07/08 08:25:15;;;;;;;7.47;3.65;;;23.60;99.90;;;;;;5038261;28;20033;-70
2023/07/08 08:27:41;;;;;;;14.98;3.83;;;23.90;99.90;;;;;;5038705;28;20055;-71
2023/07/08 08:30:07;;;;;;;6.80;3.40;;;24.30;99.90;;;;;;5037612;28;20022;-70
2023/07/08 08:32:33;;;;;;;5.03;3.53;;;24.50;99.90;;;;;;5038601;28;20033;-72
2023/07/08 08:34:59;;;;;;;5.28;3.72;;;24.70;99.90;;;;;;5037914;28;20026;-71
2023/07/08 08:37:24;;;;;;;7.55;3.30;;;24.80;99.90;;;;;;5037794;28;20110;-71
2023/07/08 08:39:50;;;;;;;5.32;3.72;;;24.80;99.90;;;;;;5038640;28;20021;-71
2023/07/08 08:42:41;;;;;;;5.55;3.72;;;24.60;99.90;;;;;;5037485;28;20104;-71
2023/07/08 08:45:09;;;;;;;;;;;24.50;99.90;;;;;;5038079;28;20041;-71
2023/07/08 08:47:40;;;;;;;8.95;3.75;;;24.70;99.90;;;;;;5037856;28;19934;-71
2023/07/08 08:50:18;;;;;;;12.27;4.07;;;24.90;99.90;;;;;;5038009;28;20017;-71
2023/07/08 08:52:43;;;;;;;9.35;3.88;;;24.90;99.90;;;;;;5037866;28;20049;-70
2023/07/08 08:55:14;;;;;;;6.50;3.67;;;25.00;99.90;;;;;;5038259;28;20029;-69
2023/07/08 08:58:02;;;;;;;7.10;3.55;;;25.30;99.90;;;;;;5037697;28;20025;-69
2023/07/08 09:00:56;;;;;;;7.13;3.53;;;25.60;99.90;;;;;;5037599;28;20026;-69
2023/07/08 09:03:43;;;;;;;7.65;3.50;;;25.60;99.90;;;;;;5038080;28;20028;-69
2023/07/08 09:06:13;;;;;;;8.02;3.92;;;25.80;99.90;;;;;;5037226;28;20033;-69
2023/07/08 09:08:40;;;;;;;6.22;3.53;;;25.70;99.90;;;;;;5037609;28;20028;-69
2023/07/08 09:11:25;;;;;;;8.93;3.90;;;25.50;99.90;;;;;;5037435;28;20033;-68
2023/07/08 09:13:51;;;;;;;4.80;3.42;;;25.70;99.90;;;;;;5038811;28;20032;-69
2023/07/08 09:16:44;;;;;;;6.10;3.75;;;26.10;99.90;;;;;;5037220;28;20025;-68
2023/07/08 09:19:19;;;;;;;5.72;3.60;;;26.60;99.90;;;;;;5029425;28;20045;-69
2023/07/08 09:21:52;;;;;;;8.00;3.88;;;26.90;99.90;;;;;;5037892;28;20017;-69
2023/07/08 09:24:29;;;;;;;8.65;3.88;;;27.20;99.90;;;;;;5037265;28;20037;-69
2023/07/08 09:26:58;;;;;;;5.18;3.88;;;27.50;99.90;;;;;;5037579;28;20048;-68
2023/07/08 09:29:24;;;;;;;6.85;4.25;;;27.70;99.90;;;;;;5037263;28;20052;-68
2023/07/08 09:31:49;;;;;;;5.55;3.70;;;28.00;99.30;;;;;;5037080;28;20025;-69
2023/07/08 09:34:17;;;;;;;5.30;3.90;;;27.90;99.00;;;;;;5036988;28;20052;-70
2023/07/08 09:36:47;;;;;;;7.25;3.70;;;27.70;98.70;;;;;;5037069;28;20032;-69
2023/07/08 09:39:14;;;;;;;7.32;4.63;;;27.70;99.30;;;;;;5036903;28;20029;-69
2023/07/08 09:41:42;;;;;;;6.78;4.20;;;27.80;98.70;;;;;;5036434;28;20029;-69
2023/07/08 09:44:25;;;;;;;7.05;4.45;;;27.90;96.90;;;;;;5036813;28;20030;-69
2023/07/08 09:46:55;;;;;;;8.93;4.30;;;28.00;95.20;;;;;;5036689;28;20056;-69
2023/07/08 09:49:26;;;;;;;8.07;4.70;;;28.20;94.40;;;;;;5036795;28;20095;-69
2023/07/08 09:51:52;;;;;;;8.13;4.22;;;28.30;92.80;;;;;;5036865;28;20108;-69
2023/07/08 09:54:20;;;;;;;7.93;4.20;;;28.40;92.20;;;;;;5036963;28;20033;-69
2023/07/08 09:56:57;;;;;;;8.05;4.55;;;28.60;91.80;;;;;;5036646;28;20022;-69
2023/07/08 09:59:31;;;;;;;7.28;4.43;;;28.90;91.60;;;;;;5037606;28;20029;-69
2023/07/08 10:01:59;;;;;;;10.15;4.50;;;29.10;90.70;;;;;;5037522;28;20120;-68
2023/07/08 10:04:24;;;;;;;7.47;4.20;;;29.10;88.70;;;;;;5036598;28;20091;-69
2023/07/08 10:06:52;;;;;;;6.53;4.30;;;29.10;89.40;;;;;;5036580;28;20137;-69
2023/07/08 10:09:20;;;;;;;12.18;4.97;;;29.30;90.00;;;;;;5036771;28;20032;-68
2023/07/08 10:11:52;;;;;;;8.52;4.88;;;29.50;82.40;;;;;;5036755;28;20030;-68
2023/07/08 10:14:33;;;;;;;11.10;4.75;;;29.70;80.80;;;;;;5036371;28;20104;-68
2023/07/08 10:16:59;;;;;;;6.70;4.60;;;29.80;80.10;;;;;;5036807;28;20041;-68
2023/07/08 10:19:25;;;;;;;7.38;4.35;;;29.90;75.80;;;;;;5036607;28;20026;-69
2023/07/08 10:22:02;;;;;;;8.02;4.80;;;29.80;75.70;;;;;;5036294;28;20025;-68
2023/07/08 10:24:45;;;;;;;16.75;4.63;;;29.90;76.20;;;;;;5036124;28;20045;-68
2023/07/08 10:27:28;;;;;;;7.72;4.75;;;30.00;73.80;;;;;;5036473;28;20068;-68
2023/07/08 10:30:07;;;;;;;8.20;4.43;;;30.30;73.20;;;;;;5036162;28;20048;-68
2023/07/08 10:32:39;;;;;;;20.20;4.78;;;30.40;71.70;;;;;;5036159;28;20028;-68
2023/07/08 10:35:18;;;;;;;5.75;4.22;;;30.30;71.50;;;;;;5036812;28;20030;-69
2023/07/08 10:38:09;;;;;;;5.75;4.40;;;30.60;73.70;;;;;;5036124;28;20076;-68
2023/07/08 10:41:00;;;;;;;8.00;4.95;;;30.80;71.90;;;;;;5037478;28;20017;-68
2023/07/08 10:43:50;;;;;;;11.65;5.70;;;31.10;72.80;;;;;;5036607;28;20045;-68
2023/07/08 10:46:48;;;;;;;6.78;4.80;;;31.20;70.50;;;;;;5035927;28;20025;-69
2023/07/08 10:49:43;;;;;;;6.25;3.97;;;31.40;68.70;;;;;;5036882;28;20079;-69
2023/07/08 10:52:27;;;;;;;8.65;4.78;;;31.80;70.20;;;;;;4976634;28;20035;-69
2023/07/08 10:55:17;;;;;;;6.10;4.20;;;32.40;67.10;;;;;;4980050;28;20058;-70
2023/07/08 10:57:53;;;;;;;8.52;4.72;;;32.80;66.40;;;;;;4964302;28;20121;-70
2023/07/08 11:00:32;;;;;;;8.73;4.47;;;33.80;63.70;;;;;;4964350;28;20042;-69
2023/07/08 11:03:16;;;;;;;9.90;5.03;;;34.30;63.40;;;;;;4980508;28;20039;-69
2023/07/08 11:05:47;;;;;;;6.10;5.15;;;33.40;63.80;;;;;;4992419;23;20039;-73
2023/07/08 11:08:23;;;;;;;6.18;4.93;;;33.00;64.50;;;;;;5003268;28;20090;-72
2023/07/08 11:11:06;;;;;;;9.57;5.25;;;33.70;61.70;;;;;;5003959;28;20046;-72
2023/07/08 11:13:34;;;;;;;6.85;4.82;;;34.30;61.00;;;;;;5003529;28;20062;-72
2023/07/08 11:16:24;;;;;;;6.82;5.60;;;34.40;60.80;;;;;;5003558;28;20117;-72
2023/07/08 11:19:10;;;;;;;6.30;4.60;;;33.60;61.50;;;;;;5021005;28;20018;-72
2023/07/08 11:21:42;;;;;;;5.63;4.72;;;33.40;64.10;;;;;;5003393;28;20026;-72
2023/07/08 11:24:36;;;;;;;26.27;6.10;;;33.50;61.80;;;;;;5003921;28;20029;-72
2023/07/08 11:27:08;;;;;;;10.48;4.93;;;33.70;62.60;;;;;;5003768;28;20044;-73
2023/07/08 11:29:48;;;;;;;6.38;5.18;;;33.70;62.10;;;;;;5021031;28;20112;-72
2023/07/08 11:32:18;;;;;;;10.95;4.97;;;33.50;59.50;;;;;;5003349;28;20026;-73
2023/07/08 11:34:48;;;;;;;8.60;4.57;;;33.60;61.10;;;;;;5019595;28;20026;-73
2023/07/08 11:37:15;;;;;;;7.85;5.10;;;34.20;59.60;;;;;;5003453;28;20022;-73
2023/07/08 11:39:46;;;;;;;6.63;5.00;;;34.60;58.40;;;;;;5019759;28;20030;-73
2023/07/08 11:42:14;;;;;;;10.35;6.72;;;34.90;56.90;;;;;;5003055;28;20089;-73
2023/07/08 11:44:52;;;;;;;11.82;5.80;;;36.50;55.10;;;;;;5003094;28;20025;-73
2023/07/08 11:47:24;;;;;;;9.27;5.30;;;36.20;54.40;;;;;;5003273;28;20026;-73
2023/07/08 11:49:52;;;;;;;9.60;5.28;;;36.30;54.60;;;;;;5003656;28;20029;-73
2023/07/08 11:52:20;;;;;;;8.93;5.13;;;35.90;54.80;;;;;;5002818;28;20018;-72
2023/07/08 11:54:47;;;;;;;9.00;5.50;;;35.10;53.00;;;;;;5003635;28;20113;-72
2023/07/08 11:57:28;;;;;;;8.13;5.65;;;35.50;52.80;;;;;;5003254;28;20026;-71
2023/07/08 12:00:12;;;;;;;9.90;5.35;;;34.90;54.70;;;;;;5002845;28;20021;-71
2023/07/08 12:03:21;;;;;;;8.02;5.32;;;34.40;54.70;;;;;;5002781;28;20034;-72
2023/07/08 12:05:46;;;;;;;11.18;5.95;;;34.70;54.40;;;;;;4994451;28;20034;-71
2023/07/08 12:08:18;;;;;;;9.15;5.30;;;36.20;52.10;;;;;;5002669;28;20100;-71
2023/07/08 12:10:51;;;;;;;14.52;6.53;;;36.40;52.60;;;;;;5002463;28;20086;-71
2023/07/08 12:13:24;;;;;;;14.15;5.70;;;35.40;53.20;;;;;;5002676;28;20026;-72
2023/07/08 12:15:50;;;;;;;8.88;5.25;;;35.20;51.90;;;;;;5002374;28;20026;-72
2023/07/08 12:18:19;;;;;;;11.35;6.70;;;34.90;51.60;;;;;;5019569;28;20034;-71
2023/07/08 12:21:00;;;;;;;7.63;5.05;;;34.90;52.50;;;;;;5002234;28;20116;-72
2023/07/08 12:23:28;;;;;;;11.18;5.53;;;34.70;52.60;;;;;;5019610;28;20026;-71
2023/07/08 12:25:55;;;;;;;6.35;4.80;;;34.80;54.10;;;;;;5002279;28;20025;-72
2023/07/08 12:28:22;;;;;;;8.23;5.60;;;35.40;53.10;;;;;;5019863;28;20026;-72
2023/07/08 12:30:49;;;;;;;9.52;5.45;;;36.30;52.30;;;;;;5002566;28;20026;-72
2023/07/08 12:33:23;;;;;;;8.55;5.13;;;36.40;51.90;;;;;;5002261;28;20083;-71
2023/07/08 12:35:50;;;;;;;10.82;5.95;;;35.70;52.70;;;;;;5003307;28;20033;-72
2023/07/08 12:38:27;;;;;;;10.48;5.55;;;35.50;52.40;;;;;;5002253;28;20025;-72
2023/07/08 12:40:52;;;;;;;6.72;5.50;;;35.30;53.20;;;;;;5002566;28;20026;-72
2023/07/08 12:43:18;;;;;;;8.77;5.50;;;35.30;53.20;;;;;;5002485;28;20022;-72
2023/07/08 12:45:44;;;;;;;12.02;5.95;;;35.70;51.10;;;;;;5019168;28;20053;-71
2023/07/08 12:48:10;;;;;;;8.10;5.50;;;36.10;51.80;;;;;;5001898;28;20041;-72
2023/07/08 12:50:36;;;;;;;8.52;5.90;;;36.60;50.50;;;;;;5002557;28;20030;-72
2023/07/08 12:53:09;;;;;;;9.00;5.45;;;36.70;49.60;;;;;;5002108;28;20022;-72
2023/07/08 12:55:36;;;;;;;14.93;6.07;;;36.60;49.30;;;;;;5002635;28;20026;-72